createdAt,value
2018-07-26T00:00:53.429Z,1.40
2018-07-26T00:03:22.750Z,1.27
2018-07-26T00:05:52.009Z,1.10
2018-07-26T00:08:21.265Z,2.00
2018-07-26T00:10:50.509Z,1.57
2018-07-26T00:13:19.517Z,2.20
2018-07-26T00:15:48.739Z,1.00
2018-07-26T00:18:18.002Z,1.17
2018-07-26T00:20:47.242Z,1.63
2018-07-26T00:23:16.498Z,2.17
2018-07-26T00:25:45.745Z,1.60
2018-07-26T00:28:14.996Z,1.60
2018-07-26T00:30:44.200Z,1.40
2018-07-26T00:33:13.478Z,2.40
2018-07-26T00:35:42.711Z,2.10
2018-07-26T00:38:12.014Z,1.53
2018-07-26T00:40:41.276Z,1.90
2018-07-26T00:43:10.537Z,1.63
2018-07-26T00:45:39.788Z,1.70
2018-07-26T00:48:09.037Z,2.20
2018-07-26T00:50:38.309Z,2.10
2018-07-26T00:53:07.539Z,1.47
2018-07-26T00:55:36.917Z,1.50
2018-07-26T00:58:06.442Z,1.73
2018-07-26T01:00:35.954Z,1.43
2018-07-26T01:03:05.249Z,1.50
2018-07-26T01:05:34.505Z,1.27
2018-07-26T01:08:03.779Z,2.17
2018-07-26T01:10:33.078Z,1.47
2018-07-26T01:13:02.393Z,1.77
2018-07-26T01:15:31.734Z,1.73
2018-07-26T01:18:01.012Z,1.37
2018-07-26T01:20:30.387Z,1.43
2018-07-26T01:22:59.642Z,1.07
2018-07-26T01:25:28.902Z,1.43
2018-07-26T01:27:58.161Z,1.60
2018-07-26T01:30:27.501Z,1.47
2018-07-26T01:32:56.765Z,1.67
2018-07-26T01:35:26.083Z,1.17
2018-07-26T01:37:55.387Z,1.90
2018-07-26T01:40:24.698Z,1.80
2018-07-26T01:43:11.169Z,1.80
2018-07-26T01:45:40.669Z,1.23
2018-07-26T01:48:09.954Z,1.73
2018-07-26T01:50:39.513Z,1.97
2018-07-26T01:53:08.984Z,1.80
2018-07-26T01:55:38.297Z,1.70
2018-07-26T01:58:07.565Z,1.30
2018-07-26T02:00:36.863Z,2.30
2018-07-26T02:03:06.086Z,1.57
2018-07-26T02:05:35.313Z,1.17
2018-07-26T02:08:04.586Z,1.20
2018-07-26T02:10:33.856Z,1.70
2018-07-26T02:13:03.082Z,1.47
2018-07-26T02:15:32.298Z,1.40
2018-07-26T02:18:01.538Z,1.63
2018-07-26T02:20:30.769Z,1.37
2018-07-26T02:23:00.016Z,1.77
2018-07-26T02:25:29.267Z,1.93
2018-07-26T02:27:58.477Z,1.63
2018-07-26T02:30:27.742Z,1.67
2018-07-26T02:32:56.971Z,1.30
2018-07-26T02:35:26.250Z,1.63
2018-07-26T02:37:55.543Z,1.90
2018-07-26T02:40:24.780Z,1.53
2018-07-26T02:42:54.074Z,1.37
2018-07-26T02:45:23.330Z,1.37
2018-07-26T02:47:52.578Z,1.63
2018-07-26T02:50:21.972Z,1.50
2018-07-26T02:52:51.196Z,1.63
2018-07-26T02:55:20.557Z,1.60
2018-07-26T02:57:49.786Z,1.07
2018-07-26T03:00:19.023Z,1.40
2018-07-26T03:02:48.260Z,1.53
2018-07-26T03:05:17.590Z,1.27
2018-07-26T03:07:46.587Z,1.73
2018-07-26T03:10:15.826Z,1.33
2018-07-26T03:12:45.203Z,1.73
2018-07-26T03:15:14.425Z,1.87
2018-07-26T03:17:43.721Z,1.53
2018-07-26T03:20:13.046Z,1.57
2018-07-26T03:22:42.311Z,1.80
2018-07-26T03:25:11.522Z,0.93
2018-07-26T03:27:40.818Z,1.30
2018-07-26T03:30:10.054Z,0.80
2018-07-26T03:32:39.293Z,1.57
2018-07-26T03:35:08.504Z,1.90
2018-07-26T03:37:37.757Z,1.47
2018-07-26T03:40:07.303Z,2.43
2018-07-26T03:42:36.525Z,1.37
2018-07-26T03:45:06.314Z,1.97
2018-07-26T03:47:35.568Z,2.30
2018-07-26T03:50:05.206Z,2.27
2018-07-26T03:52:34.471Z,1.60
2018-07-26T03:55:03.716Z,2.13
2018-07-26T03:57:32.999Z,1.20
2018-07-26T04:00:02.286Z,1.63
2018-07-26T04:02:31.651Z,2.30
2018-07-26T04:05:00.962Z,1.70
2018-07-26T04:07:30.289Z,2.07
2018-07-26T04:09:59.555Z,2.10
2018-07-26T04:12:28.922Z,1.40
2018-07-26T04:14:58.290Z,1.90
2018-07-26T04:17:27.622Z,1.70
2018-07-26T04:19:56.934Z,1.60
2018-07-26T04:22:26.168Z,1.13
2018-07-26T04:24:55.581Z,1.50
2018-07-26T04:27:24.860Z,1.90
2018-07-26T04:29:54.237Z,1.63
2018-07-26T04:32:23.520Z,1.80
2018-07-26T04:34:52.887Z,1.20
2018-07-26T04:37:22.142Z,1.50
2018-07-26T04:39:51.176Z,1.80
2018-07-26T04:42:20.621Z,1.57
2018-07-26T04:44:49.932Z,1.87
2018-07-26T04:47:19.228Z,2.10
2018-07-26T04:49:48.637Z,2.17
2018-07-26T04:52:18.003Z,1.63
2018-07-26T04:54:47.272Z,1.30
2018-07-26T04:57:16.535Z,2.63
2018-07-26T04:59:45.842Z,1.97
2018-07-26T05:02:15.190Z,2.30
2018-07-26T05:04:44.482Z,2.27
2018-07-26T05:07:13.745Z,2.10
2018-07-26T05:09:43.072Z,2.90
2018-07-26T05:12:12.350Z,3.37
2018-07-26T05:14:41.628Z,2.40
2018-07-26T05:17:10.888Z,2.70
2018-07-26T05:19:40.155Z,1.93
2018-07-26T05:22:09.406Z,3.03
2018-07-26T05:24:38.682Z,2.40
2018-07-26T05:27:08.503Z,3.40
2018-07-26T05:29:37.897Z,2.93
2018-07-26T05:32:07.167Z,2.53
2018-07-26T05:34:36.590Z,2.50
2018-07-26T05:37:05.827Z,2.00
2018-07-26T05:39:35.080Z,2.40
2018-07-26T05:42:04.353Z,2.05
2018-07-26T05:44:33.572Z,2.30
2018-07-26T05:47:02.784Z,2.83
2018-07-26T05:49:32.017Z,1.95
2018-07-26T05:52:01.269Z,2.10
2018-07-26T05:54:30.522Z,2.27
2018-07-26T05:57:00.066Z,2.08
2018-07-26T05:59:29.317Z,2.35
2018-07-26T06:01:58.802Z,2.05
2018-07-26T06:04:28.090Z,2.00
2018-07-26T06:06:57.426Z,1.70
2018-07-26T06:09:26.777Z,2.42
2018-07-26T06:11:56.178Z,2.67
2018-07-26T06:14:25.500Z,1.72
2018-07-26T06:16:54.814Z,2.12
2018-07-26T06:19:24.203Z,2.67
2018-07-26T06:21:53.504Z,2.92
2018-07-26T06:24:22.878Z,2.50
2018-07-26T06:26:52.207Z,2.67
2018-07-26T06:29:21.765Z,2.67
2018-07-26T06:31:51.120Z,2.05
2018-07-26T06:34:20.754Z,2.42
2018-07-26T06:36:50.094Z,2.58
2018-07-26T06:39:19.502Z,2.70
2018-07-26T06:41:48.942Z,2.80
2018-07-26T06:44:18.767Z,2.55
2018-07-26T06:46:48.095Z,2.50
2018-07-26T06:49:17.407Z,2.42
2018-07-26T06:51:46.765Z,2.22
2018-07-26T06:54:16.170Z,2.27
2018-07-26T06:56:45.511Z,3.42
2018-07-26T06:59:14.986Z,2.25
2018-07-26T07:01:44.341Z,2.20
2018-07-26T07:04:13.660Z,2.50
2018-07-26T07:06:42.788Z,2.80
2018-07-26T07:09:12.798Z,2.67
2018-07-26T07:11:42.199Z,2.20
2018-07-26T07:14:11.582Z,3.10
2018-07-26T07:16:41.066Z,3.07
2018-07-26T07:19:10.442Z,3.63
2018-07-26T07:21:39.718Z,3.33
2018-07-26T07:24:09.074Z,2.03
2018-07-26T07:26:38.346Z,2.27
2018-07-26T07:29:07.853Z,2.30
2018-07-26T07:31:37.192Z,2.03
2018-07-26T07:34:06.718Z,2.87
2018-07-26T07:36:35.992Z,1.90
2018-07-26T07:39:08.904Z,1.53
2018-07-26T07:41:38.347Z,1.60
2018-07-26T07:44:08.462Z,2.27
2018-07-26T07:46:37.940Z,1.70
2018-07-26T07:49:07.611Z,2.73
2018-07-26T07:51:36.898Z,1.57
2018-07-26T07:54:06.204Z,1.67
2018-07-26T07:56:35.457Z,2.17
2018-07-26T07:59:04.973Z,1.63
2018-07-26T08:01:34.295Z,1.90
2018-07-26T08:04:03.577Z,1.30
2018-07-26T08:06:32.973Z,1.53
2018-07-26T08:09:02.249Z,2.00
2018-07-26T08:11:31.567Z,1.30
2018-07-26T08:14:00.783Z,2.00
2018-07-26T08:16:30.035Z,1.57
2018-07-26T08:18:59.310Z,1.70
2018-07-26T08:21:28.566Z,2.10
2018-07-26T08:23:57.799Z,1.72
2018-07-26T08:26:27.103Z,1.50
2018-07-26T08:28:56.148Z,1.60
2018-07-26T08:31:25.423Z,2.02
2018-07-26T08:33:54.779Z,1.50
2018-07-26T08:36:24.193Z,1.50
2018-07-26T08:38:53.470Z,1.75
2018-07-26T08:41:29.190Z,1.72
2018-07-26T08:43:58.470Z,1.60
2018-07-26T08:46:27.713Z,1.87
2018-07-26T08:48:56.970Z,1.27
2018-07-26T08:51:26.534Z,1.52
2018-07-26T08:53:55.858Z,1.92
2018-07-26T08:56:25.205Z,1.55
2018-07-26T08:58:54.533Z,1.20
2018-07-26T09:01:23.837Z,2.25
2018-07-26T09:03:53.224Z,1.67
2018-07-26T09:06:22.682Z,1.72
2018-07-26T09:08:52.079Z,1.10
2018-07-26T09:11:21.398Z,1.77
2018-07-26T09:13:50.793Z,1.15
2018-07-26T09:16:20.042Z,1.07
2018-07-26T09:18:49.549Z,1.65
2018-07-26T09:21:18.852Z,1.20
2018-07-26T09:23:48.136Z,1.35
2018-07-26T09:26:17.721Z,1.40
2018-07-26T09:28:46.990Z,1.22
2018-07-26T09:31:16.460Z,1.15
2018-07-26T09:33:45.871Z,1.30
2018-07-26T09:36:15.133Z,1.45
2018-07-26T09:38:44.560Z,1.02
2018-07-26T09:41:14.842Z,1.37
2018-07-26T09:43:44.865Z,1.10
2018-07-26T09:46:14.495Z,1.42
2018-07-26T09:48:44.080Z,1.30
2018-07-26T09:51:13.439Z,1.07
2018-07-26T09:53:42.735Z,1.30
2018-07-26T09:56:12.029Z,0.80
2018-07-26T09:58:41.425Z,1.10
2018-07-26T10:01:15.901Z,1.30
2018-07-26T10:03:45.262Z,0.93
2018-07-26T10:06:14.589Z,1.35
2018-07-26T10:08:44.050Z,1.20
2018-07-26T10:11:13.370Z,1.35
2018-07-26T10:13:42.678Z,0.95
2018-07-26T10:16:11.999Z,1.98
2018-07-26T10:18:41.054Z,1.05
2018-07-26T10:21:10.415Z,1.30
2018-07-26T10:23:39.759Z,1.62
2018-07-26T10:26:09.057Z,1.35
2018-07-26T10:28:38.451Z,1.02
2018-07-26T10:31:08.183Z,0.90
2018-07-26T10:33:37.676Z,1.12
2018-07-26T10:36:06.987Z,1.07
2018-07-26T10:38:36.384Z,1.17
2018-07-26T10:41:05.720Z,0.80
2018-07-26T10:43:35.030Z,1.10
2018-07-26T10:46:04.400Z,1.20
2018-07-26T10:48:33.761Z,1.12
2018-07-26T10:51:03.078Z,0.80
2018-07-26T10:53:32.363Z,1.17
2018-07-26T10:56:01.675Z,1.12
2018-07-26T10:58:31.002Z,0.72
2018-07-26T11:01:00.351Z,0.93
2018-07-26T11:03:29.815Z,0.90
2018-07-26T11:05:59.285Z,0.88
2018-07-26T11:08:28.750Z,0.75
2018-07-26T11:10:58.135Z,0.78
2018-07-26T11:13:27.461Z,0.82
2018-07-26T11:15:56.817Z,0.90
2018-07-26T11:18:26.769Z,0.90
2018-07-26T11:20:56.158Z,0.72
2018-07-26T11:23:25.589Z,0.70
2018-07-26T11:25:54.902Z,0.95
2018-07-26T11:28:24.197Z,0.70
2018-07-26T11:30:53.570Z,1.10
2018-07-26T11:33:22.873Z,1.12
2018-07-26T11:35:52.200Z,0.72
2018-07-26T11:38:21.492Z,1.05
2018-07-26T11:40:50.579Z,0.45
2018-07-26T11:43:19.953Z,0.75
2018-07-26T11:45:49.411Z,0.78
2018-07-26T11:48:18.714Z,0.80
2018-07-26T11:50:48.152Z,0.70
2018-07-26T11:53:17.567Z,1.17
2018-07-26T11:55:46.902Z,1.00
2018-07-26T11:58:16.220Z,0.93
2018-07-26T12:00:45.525Z,0.85
2018-07-26T12:03:14.808Z,0.93
2018-07-26T12:05:44.134Z,0.60
2018-07-26T12:08:13.434Z,1.07
2018-07-26T12:10:42.706Z,0.80
2018-07-26T12:13:12.026Z,0.70
2018-07-26T12:15:41.378Z,1.17
2018-07-26T12:18:10.730Z,1.10
2018-07-26T12:20:40.078Z,0.60
2018-07-26T12:23:09.429Z,0.93
2018-07-26T12:25:38.700Z,0.78
2018-07-26T12:28:08.450Z,0.80
2018-07-26T12:30:37.710Z,1.20
2018-07-26T12:33:06.993Z,0.80
2018-07-26T12:35:36.429Z,0.82
2018-07-26T12:38:05.702Z,0.75
2018-07-26T12:40:35.004Z,0.93
2018-07-26T12:43:04.270Z,1.10
2018-07-26T12:45:33.605Z,1.60
2018-07-26T12:48:03.002Z,1.22
2018-07-26T12:50:32.455Z,0.88
2018-07-26T12:53:01.911Z,0.80
2018-07-26T12:55:30.927Z,0.82
2018-07-26T12:58:00.320Z,1.10
2018-07-26T13:00:29.630Z,0.75
2018-07-26T13:02:59.001Z,1.77
2018-07-26T13:05:28.327Z,0.95
2018-07-26T13:07:57.706Z,0.78
2018-07-26T13:10:27.215Z,0.70
2018-07-26T13:12:56.308Z,0.80
2018-07-26T13:15:25.658Z,0.93
2018-07-26T13:17:54.986Z,0.82
2018-07-26T13:20:24.278Z,0.82
2018-07-26T13:22:53.317Z,1.22
2018-07-26T13:25:22.630Z,0.93
2018-07-26T13:27:52.031Z,0.98
2018-07-26T13:30:21.310Z,0.93
2018-07-26T13:32:50.695Z,0.75
2018-07-26T13:35:20.189Z,1.10
2018-07-26T13:37:49.512Z,0.93
2018-07-26T13:40:18.869Z,1.00
2018-07-26T13:42:48.133Z,1.10
2018-07-26T13:45:17.432Z,0.98
2018-07-26T13:47:46.788Z,0.78
2018-07-26T13:50:16.125Z,1.30
2018-07-26T13:52:45.287Z,1.10
2018-07-26T13:55:14.638Z,1.10
2018-07-26T13:57:44.818Z,1.17
2018-07-26T14:00:14.890Z,0.98
2018-07-26T14:02:45.063Z,1.10
2018-07-26T14:05:14.522Z,0.95
2018-07-26T14:07:44.542Z,1.12
2018-07-26T14:10:13.941Z,1.00
2018-07-26T14:12:43.841Z,1.10
2018-07-26T14:15:13.386Z,0.88
2018-07-26T14:17:42.889Z,0.98
2018-07-26T14:20:13.051Z,0.90
2018-07-26T14:22:42.580Z,0.78
2018-07-26T14:25:11.930Z,1.50
2018-07-26T14:27:41.055Z,0.72
2018-07-26T14:30:10.833Z,1.10
2018-07-26T14:32:40.172Z,1.25
2018-07-26T14:35:09.506Z,0.50
2018-07-26T14:37:38.814Z,1.07
2018-07-26T14:40:08.124Z,1.25
2018-07-26T14:42:37.186Z,1.32
2018-07-26T14:45:06.799Z,1.00
2018-07-26T14:47:36.126Z,0.90
2018-07-26T14:50:05.840Z,1.55
2018-07-26T14:52:35.145Z,0.80
2018-07-26T14:55:04.743Z,1.00
2018-07-26T14:57:34.282Z,1.22
2018-07-26T15:00:03.725Z,1.22
2018-07-26T15:02:33.038Z,1.42
2018-07-26T15:05:02.361Z,0.90
2018-07-26T15:07:31.643Z,0.93
2018-07-26T15:10:00.964Z,1.05
2018-07-26T15:12:30.206Z,1.85
2018-07-26T15:14:59.482Z,1.10
2018-07-26T15:17:28.730Z,1.22
2018-07-26T15:19:57.996Z,0.93
2018-07-26T15:22:27.319Z,1.00
2018-07-26T15:24:56.610Z,1.27
2018-07-26T15:27:25.925Z,1.00
2018-07-26T15:29:55.355Z,0.85
2018-07-26T15:32:24.751Z,1.60
2018-07-26T15:34:54.167Z,1.17
2018-07-26T15:37:23.473Z,1.07
2018-07-26T15:39:52.797Z,1.07
2018-07-26T15:42:22.115Z,0.93
2018-07-26T15:44:51.526Z,0.60
2018-07-26T15:47:20.769Z,1.15
2018-07-26T15:49:50.091Z,1.00
2018-07-26T15:52:19.345Z,0.90
2018-07-26T15:54:48.649Z,1.35
2018-07-26T15:57:17.957Z,1.02
2018-07-26T15:59:47.226Z,1.20
2018-07-26T16:02:16.591Z,1.45
2018-07-26T16:04:45.930Z,1.30
2018-07-26T16:07:15.317Z,0.90
2018-07-26T16:09:44.633Z,0.80
2018-07-26T16:12:14.076Z,1.22
2018-07-26T16:14:43.398Z,1.20
2018-07-26T16:17:12.686Z,1.20
2018-07-26T16:19:42.077Z,1.10
2018-07-26T16:22:11.381Z,1.15
2018-07-26T16:24:40.764Z,1.35
2018-07-26T16:27:10.098Z,1.20
2018-07-26T16:29:39.416Z,1.10
2018-07-26T16:32:08.823Z,0.82
2018-07-26T16:34:38.150Z,1.47
2018-07-26T16:37:07.521Z,1.05
2018-07-26T16:39:36.894Z,1.37
2018-07-26T16:42:06.339Z,1.45
2018-07-26T16:44:35.739Z,1.00
2018-07-26T16:47:05.245Z,1.98
2018-07-26T16:49:34.695Z,1.17
2018-07-26T16:52:04.200Z,1.02
2018-07-26T16:54:33.494Z,1.35
2018-07-26T16:57:02.887Z,1.40
2018-07-26T16:59:32.406Z,1.27
2018-07-26T17:02:02.170Z,1.02
2018-07-26T17:04:31.548Z,1.20
2018-07-26T17:07:01.507Z,1.32
2018-07-26T17:09:30.850Z,1.57
2018-07-26T17:12:00.348Z,1.45
2018-07-26T17:14:29.675Z,1.52
2018-07-26T17:16:59.083Z,1.75
2018-07-26T17:19:29.143Z,1.47
2018-07-26T17:21:58.440Z,1.65
2018-07-26T17:24:27.856Z,1.35
2018-07-26T17:26:57.279Z,1.07
2018-07-26T17:29:26.654Z,1.40
2018-07-26T17:31:56.117Z,1.37
2018-07-26T17:34:25.432Z,1.70
2018-07-26T17:36:54.743Z,1.70
2018-07-26T17:39:24.000Z,1.47
2018-07-26T17:41:53.397Z,1.50
2018-07-26T17:44:22.701Z,1.80
2018-07-26T17:46:52.062Z,1.40
2018-07-26T17:49:21.411Z,1.27
2018-07-26T17:51:50.730Z,1.20
2018-07-26T17:54:20.102Z,1.42
2018-07-26T17:56:49.442Z,1.20
2018-07-26T17:59:18.720Z,1.30
2018-07-26T18:01:48.181Z,1.00
2018-07-26T18:04:17.571Z,1.10
2018-07-26T18:06:47.083Z,1.30
2018-07-26T18:09:16.498Z,1.40
2018-07-26T18:11:45.714Z,1.60
2018-07-26T18:14:14.745Z,1.10
2018-07-26T18:16:44.236Z,1.40
2018-07-26T18:19:13.365Z,1.22
2018-07-26T18:21:43.094Z,1.22
2018-07-26T18:24:12.363Z,1.10
2018-07-26T18:26:41.633Z,1.27
2018-07-26T18:29:11.120Z,1.17
2018-07-26T18:31:40.607Z,1.12
2018-07-26T18:34:10.405Z,1.67
2018-07-26T18:36:39.797Z,1.17
2018-07-26T18:39:11.849Z,1.20
2018-07-26T18:41:41.305Z,1.27
2018-07-26T18:44:11.165Z,1.27
2018-07-26T18:46:40.510Z,0.95
2018-07-26T18:49:10.241Z,1.37
2018-07-26T18:51:40.669Z,1.20
2018-07-26T18:54:11.217Z,1.42
2018-07-26T18:56:40.250Z,1.10
2018-07-26T18:59:10.517Z,0.90
2018-07-26T19:01:39.836Z,1.23
2018-07-26T19:04:09.524Z,0.97
2018-07-26T19:06:38.655Z,1.23
2018-07-26T19:09:11.642Z,1.23
2018-07-26T19:11:41.657Z,1.57
2018-07-26T19:14:11.555Z,1.43
2018-07-26T19:16:40.961Z,1.40
2018-07-26T19:19:11.008Z,1.33
2018-07-26T19:21:40.382Z,1.23
2018-07-26T19:24:10.188Z,1.13
2018-07-26T19:26:39.510Z,1.17
2018-07-26T19:29:09.043Z,1.80
2018-07-26T19:31:38.691Z,1.17
2018-07-26T19:34:11.145Z,1.30
2018-07-26T19:36:40.507Z,1.37
2018-07-26T19:39:11.837Z,1.30
2018-07-26T19:41:41.848Z,1.03
2018-07-26T19:44:11.348Z,1.70
2018-07-26T19:46:40.575Z,1.53
2018-07-26T19:49:09.925Z,1.53
2018-07-26T19:51:39.270Z,1.10
2018-07-26T19:54:08.757Z,1.40
2018-07-26T19:56:38.021Z,2.17
2018-07-26T19:59:07.381Z,1.97
2018-07-26T20:01:36.525Z,1.53
2018-07-26T20:04:06.064Z,1.77
2018-07-26T20:06:35.425Z,1.80
2018-07-26T20:09:08.223Z,1.30
2018-07-26T20:11:37.591Z,2.10
2018-07-26T20:14:07.842Z,2.13
2018-07-26T20:16:37.540Z,1.67
2018-07-26T20:19:07.022Z,2.20
2018-07-26T20:21:36.452Z,1.87
2018-07-26T20:24:05.843Z,1.50
2018-07-26T20:26:35.188Z,1.30
2018-07-26T20:29:04.476Z,1.50
2018-07-26T20:31:34.243Z,1.37
2018-07-26T20:34:03.556Z,1.10
2018-07-26T20:36:32.878Z,1.30
2018-07-26T20:39:02.310Z,1.30
2018-07-26T20:41:31.662Z,1.97
2018-07-26T20:44:01.112Z,1.03
2018-07-26T20:46:30.491Z,1.30
2018-07-26T20:48:59.819Z,1.10
2018-07-26T20:51:29.170Z,1.80
2018-07-26T20:53:58.615Z,1.80
2018-07-26T20:56:27.872Z,1.40
2018-07-26T20:58:57.174Z,1.17
2018-07-26T21:01:26.443Z,1.40
2018-07-26T21:03:55.755Z,1.10
2018-07-26T21:06:25.046Z,1.47
2018-07-26T21:08:54.400Z,1.70
2018-07-26T21:11:23.714Z,2.07
2018-07-26T21:13:53.098Z,1.10
2018-07-26T21:16:22.509Z,1.73
2018-07-26T21:18:51.771Z,1.90
2018-07-26T21:21:21.134Z,0.77
2018-07-26T21:23:50.421Z,2.00
2018-07-26T21:26:19.728Z,1.53
2018-07-26T21:28:48.746Z,1.30
2018-07-26T21:31:18.037Z,1.20
2018-07-26T21:33:47.323Z,1.30
2018-07-26T21:36:16.625Z,1.70
2018-07-26T21:38:45.889Z,1.47
2018-07-26T21:41:15.555Z,1.33
2018-07-26T21:43:44.816Z,1.27
2018-07-26T21:46:14.361Z,1.23
2018-07-26T21:48:43.673Z,1.17
2018-07-26T21:51:13.138Z,1.47
2018-07-26T21:53:42.504Z,1.13
2018-07-26T21:56:11.804Z,1.07
2018-07-26T21:58:41.076Z,1.30
2018-07-26T22:01:10.367Z,1.40
2018-07-26T22:03:39.671Z,1.40
2018-07-26T22:06:09.030Z,1.57
2018-07-26T22:08:38.383Z,1.00
2018-07-26T22:11:07.755Z,0.93
2018-07-26T22:13:37.108Z,1.40
2018-07-26T22:16:06.585Z,1.70
2018-07-26T22:18:35.847Z,1.47
2018-07-26T22:21:05.199Z,1.43
2018-07-26T22:23:34.486Z,1.33
2018-07-26T22:26:03.773Z,1.43
2018-07-26T22:28:33.143Z,1.47
2018-07-26T22:31:02.558Z,1.27
2018-07-26T22:33:31.935Z,1.47
2018-07-26T22:36:01.241Z,1.40
2018-07-26T22:38:30.560Z,1.57
2018-07-26T22:40:59.924Z,1.00
2018-07-26T22:43:29.259Z,1.50
2018-07-26T22:45:58.571Z,1.87
2018-07-26T22:48:27.852Z,1.30
2018-07-26T22:50:57.161Z,1.20
2018-07-26T22:53:26.445Z,1.47
2018-07-26T22:55:55.754Z,1.17
2018-07-26T22:58:25.081Z,1.50
2018-07-26T23:00:54.393Z,1.03
2018-07-26T23:03:23.637Z,1.40
2018-07-26T23:05:52.904Z,1.43
2018-07-26T23:08:22.312Z,1.30
2018-07-26T23:10:51.574Z,1.57
2018-07-26T23:13:20.991Z,1.60
2018-07-26T23:15:50.302Z,2.00
2018-07-26T23:18:19.721Z,1.13
2018-07-26T23:20:49.008Z,1.60
2018-07-26T23:23:18.329Z,1.60
2018-07-26T23:25:47.612Z,1.10
2018-07-26T23:28:17.009Z,1.23
2018-07-26T23:30:46.032Z,1.10
2018-07-26T23:33:15.344Z,1.10
2018-07-26T23:35:44.635Z,1.30
2018-07-26T23:38:13.895Z,1.40
2018-07-26T23:40:43.203Z,1.43
2018-07-26T23:43:12.502Z,1.60
2018-07-26T23:45:41.757Z,1.10
2018-07-26T23:48:11.032Z,1.40
2018-07-26T23:50:40.410Z,1.23
2018-07-26T23:53:09.716Z,1.60
2018-07-26T23:55:39.026Z,1.40
2018-07-26T23:58:08.323Z,1.23
